sensor_id;sensor_type;location;lat;lon;timestamp;pressure;altitude;pressure_sealevel;temperature;humidity
57290;BME280;43523;53.022;-1.178;2022-10-03T00:01:18;101925.39;;;6.80;100.00
57290;BME280;43523;53.022;-1.178;2022-10-03T00:02:37;101927.72;;;7.25;95.47
57290;BME280;43523;53.022;-1.178;2022-10-03T00:03:55;101931.80;;;6.74;100.00
57290;BME280;43523;53.022;-1.178;2022-10-03T00:05:19;101938.80;;;6.32;100.00
57290;BME280;43523;53.022;-1.178;2022-10-03T00:06:39;101933.41;;;6.63;100.00
57290;BME280;43523;53.022;-1.178;2022-10-03T00:07:58;101929.32;;;6.87;100.00
57290;BME280;43523;53.022;-1.178;2022-10-03T00:09:15;101927.94;;;6.67;100.00
57290;BME280;43523;53.022;-1.178;2022-10-03T00:10:30;101928.60;;;6.71;100.00
57290;BME280;43523;53.022;-1.178;2022-10-03T00:11:45;101928.67;;;6.74;100.00
57290;BME280;43523;53.022;-1.178;2022-10-03T00:13:05;101932.75;;;6.68;99.41
57290;BME280;43523;53.022;-1.178;2022-10-03T00:14:16;101934.17;;;6.67;95.17
57290;BME280;43523;53.022;-1.178;2022-10-03T00:15:26;101936.06;;;6.49;100.00
57290;BME280;43523;53.022;-1.178;2022-10-03T00:16:39;101943.56;;;6.66;100.00
57290;BME280;43523;53.022;-1.178;2022-10-03T00:17:54;101941.88;;;6.40;100.00
57290;BME280;43523;53.022;-1.178;2022-10-03T00:19:06;101938.67;;;6.41;100.00
57290;BME280;43523;53.022;-1.178;2022-10-03T00:20:33;101943.62;;;5.99;100.00
57290;BME280;43523;53.022;-1.178;2022-10-03T00:21:51;101945.37;;;6.21;100.00
57290;BME280;43523;53.022;-1.178;2022-10-03T00:23:03;101946.30;;;6.22;100.00
57290;BME280;43523;53.022;-1.178;2022-10-03T00:24:22;101946.78;;;6.95;100.00
57290;BME280;43523;53.022;-1.178;2022-10-03T00:25:35;101947.33;;;6.41;100.00
57290;BME280;43523;53.022;-1.178;2022-10-03T00:26:48;101949.89;;;6.64;100.00
57290;BME280;43523;53.022;-1.178;2022-10-03T00:28:04;101953.55;;;6.53;100.00
57290;BME280;43523;53.022;-1.178;2022-10-03T00:29:24;101961.70;;;6.72;100.00
57290;BME280;43523;53.022;-1.178;2022-10-03T00:30:51;101962.85;;;5.72;100.00
57290;BME280;43523;53.022;-1.178;2022-10-03T00:32:12;101960.27;;;5.99;100.00
57290;BME280;43523;53.022;-1.178;2022-10-03T00:33:29;101953.66;;;6.26;100.00
57290;BME280;43523;53.022;-1.178;2022-10-03T00:34:50;101951.22;;;6.48;100.00
57290;BME280;43523;53.022;-1.178;2022-10-03T00:36:02;101948.88;;;6.62;100.00
57290;BME280;43523;53.022;-1.178;2022-10-03T00:37:20;101951.90;;;6.82;100.00
57290;BME280;43523;53.022;-1.178;2022-10-03T00:38:41;101960.24;;;5.97;100.00
57290;BME280;43523;53.022;-1.178;2022-10-03T00:40:21;101960.45;;;6.06;100.00
57290;BME280;43523;53.022;-1.178;2022-10-03T00:43:28;101954.01;;;7.29;100.00
57290;BME280;43523;53.022;-1.178;2022-10-03T00:44:57;101952.41;;;6.37;100.00
57290;BME280;43523;53.022;-1.178;2022-10-03T00:46:27;101953.26;;;6.50;100.00
57290;BME280;43523;53.022;-1.178;2022-10-03T00:47:57;101955.42;;;6.09;100.00
57290;BME280;43523;53.022;-1.178;2022-10-03T00:50:00;101953.40;;;5.68;100.00
57290;BME280;43523;53.022;-1.178;2022-10-03T00:51:26;101952.02;;;6.09;100.00
57290;BME280;43523;53.022;-1.178;2022-10-03T00:52:51;101951.38;;;6.16;100.00
57290;BME280;43523;53.022;-1.178;2022-10-03T00:54:15;101944.98;;;6.47;100.00
57290;BME280;43523;53.022;-1.178;2022-10-03T00:55:42;101948.96;;;5.77;100.00
57290;BME280;43523;53.022;-1.178;2022-10-03T00:57:10;101948.95;;;6.10;100.00
57290;BME280;43523;53.022;-1.178;2022-10-03T00:58:35;101948.59;;;6.13;100.00
57290;BME280;43523;53.022;-1.178;2022-10-03T00:59:54;101944.03;;;6.88;100.00
57290;BME280;43523;53.022;-1.178;2022-10-03T01:01:20;101944.83;;;6.49;100.00
57290;BME280;43523;53.022;-1.178;2022-10-03T01:02:33;101940.95;;;6.54;100.00
57290;BME280;43523;53.022;-1.178;2022-10-03T01:03:49;101942.31;;;6.64;100.00
57290;BME280;43523;53.022;-1.178;2022-10-03T01:05:06;101945.62;;;6.88;100.00
57290;BME280;43523;53.022;-1.178;2022-10-03T01:06:22;101945.25;;;6.79;100.00
57290;BME280;43523;53.022;-1.178;2022-10-03T01:07:51;101947.93;;;6.28;100.00
57290;BME280;43523;53.022;-1.178;2022-10-03T01:09:28;101954.54;;;6.52;100.00
57290;BME280;43523;53.022;-1.178;2022-10-03T01:10:49;101949.54;;;6.39;100.00
57290;BME280;43523;53.022;-1.178;2022-10-03T01:12:08;101955.89;;;6.38;100.00
57290;BME280;43523;53.022;-1.178;2022-10-03T01:13:29;101954.79;;;6.28;100.00
57290;BME280;43523;53.022;-1.178;2022-10-03T01:14:46;101952.03;;;6.37;100.00
57290;BME280;43523;53.022;-1.178;2022-10-03T01:16:00;101952.01;;;6.31;99.25
57290;BME280;43523;53.022;-1.178;2022-10-03T01:17:11;101954.93;;;6.21;100.00
57290;BME280;43523;53.022;-1.178;2022-10-03T01:18:26;101951.63;;;6.27;97.92
57290;BME280;43523;53.022;-1.178;2022-10-03T01:19:49;101953.91;;;6.43;95.84
57290;BME280;43523;53.022;-1.178;2022-10-03T01:21:02;101956.62;;;6.49;100.00
57290;BME280;43523;53.022;-1.178;2022-10-03T01:22:23;101954.67;;;6.26;100.00
57290;BME280;43523;53.022;-1.178;2022-10-03T01:23:43;101957.03;;;5.99;100.00
57290;BME280;43523;53.022;-1.178;2022-10-03T01:24:54;101960.17;;;6.03;100.00
57290;BME280;43523;53.022;-1.178;2022-10-03T01:26:09;101960.99;;;6.12;100.00
57290;BME280;43523;53.022;-1.178;2022-10-03T01:27:20;101960.42;;;6.60;100.00
57290;BME280;43523;53.022;-1.178;2022-10-03T01:28:40;101960.10;;;6.73;100.00
57290;BME280;43523;53.022;-1.178;2022-10-03T01:29:48;101960.37;;;6.15;100.00
57290;BME280;43523;53.022;-1.178;2022-10-03T01:30:56;101955.19;;;6.41;100.00
57290;BME280;43523;53.022;-1.178;2022-10-03T01:32:03;101952.85;;;6.00;100.00
57290;BME280;43523;53.022;-1.178;2022-10-03T01:33:10;101949.07;;;6.30;100.00
57290;BME280;43523;53.022;-1.178;2022-10-03T01:34:22;101948.13;;;6.05;100.00
57290;BME280;43523;53.022;-1.178;2022-10-03T01:35:35;101948.33;;;6.35;100.00
57290;BME280;43523;53.022;-1.178;2022-10-03T01:36:51;101947.08;;;6.51;100.00
57290;BME280;43523;53.022;-1.178;2022-10-03T01:38:02;101945.99;;;6.40;100.00
57290;BME280;43523;53.022;-1.178;2022-10-03T01:39:12;101946.53;;;6.42;100.00
57290;BME280;43523;53.022;-1.178;2022-10-03T01:40:22;101946.72;;;6.40;100.00
57290;BME280;43523;53.022;-1.178;2022-10-03T01:41:36;101949.46;;;6.54;100.00
57290;BME280;43523;53.022;-1.178;2022-10-03T01:43:04;101949.61;;;6.23;100.00
57290;BME280;43523;53.022;-1.178;2022-10-03T01:44:14;101949.30;;;6.60;100.00
57290;BME280;43523;53.022;-1.178;2022-10-03T01:45:25;101949.69;;;6.40;100.00
57290;BME280;43523;53.022;-1.178;2022-10-03T01:46:36;101950.76;;;5.91;100.00
57290;BME280;43523;53.022;-1.178;2022-10-03T01:47:45;101953.93;;;6.24;100.00
57290;BME280;43523;53.022;-1.178;2022-10-03T01:48:54;101956.96;;;6.42;100.00
57290;BME280;43523;53.022;-1.178;2022-10-03T01:50:05;101960.94;;;6.11;100.00
57290;BME280;43523;53.022;-1.178;2022-10-03T01:51:12;101964.98;;;6.35;100.00
57290;BME280;43523;53.022;-1.178;2022-10-03T01:52:22;101964.14;;;6.42;100.00
57290;BME280;43523;53.022;-1.178;2022-10-03T01:53:37;101965.99;;;6.35;100.00
57290;BME280;43523;53.022;-1.178;2022-10-03T01:54:49;101964.67;;;6.18;100.00
57290;BME280;43523;53.022;-1.178;2022-10-03T01:56:00;101966.64;;;6.35;100.00
57290;BME280;43523;53.022;-1.178;2022-10-03T01:57:12;101965.27;;;6.09;100.00
57290;BME280;43523;53.022;-1.178;2022-10-03T01:58:23;101965.99;;;6.44;98.36
57290;BME280;43523;53.022;-1.178;2022-10-03T01:59:34;101968.01;;;5.89;100.00
57290;BME280;43523;53.022;-1.178;2022-10-03T02:00:46;101967.25;;;6.37;100.00
57290;BME280;43523;53.022;-1.178;2022-10-03T02:01:57;101964.68;;;5.91;100.00
57290;BME280;43523;53.022;-1.178;2022-10-03T02:03:08;101964.74;;;6.29;100.00
57290;BME280;43523;53.022;-1.178;2022-10-03T02:04:18;101961.16;;;6.39;100.00
57290;BME280;43523;53.022;-1.178;2022-10-03T02:05:27;101961.85;;;6.30;100.00
57290;BME280;43523;53.022;-1.178;2022-10-03T02:06:43;101962.30;;;6.15;100.00
57290;BME280;43523;53.022;-1.178;2022-10-03T02:07:53;101967.14;;;6.06;100.00
57290;BME280;43523;53.022;-1.178;2022-10-03T02:09:02;101969.25;;;5.85;100.00
57290;BME280;43523;53.022;-1.178;2022-10-03T02:10:17;101967.70;;;6.00;100.00
57290;BME280;43523;53.022;-1.178;2022-10-03T02:11:28;101967.25;;;6.27;100.00
57290;BME280;43523;53.022;-1.178;2022-10-03T02:12:38;101966.48;;;6.41;100.00
57290;BME280;43523;53.022;-1.178;2022-10-03T02:13:47;101970.97;;;6.31;100.00
57290;BME280;43523;53.022;-1.178;2022-10-03T02:14:58;101971.72;;;5.91;100.00
57290;BME280;43523;53.022;-1.178;2022-10-03T02:16:08;101973.41;;;6.15;100.00
57290;BME280;43523;53.022;-1.178;2022-10-03T02:17:21;101974.78;;;6.21;100.00
57290;BME280;43523;53.022;-1.178;2022-10-03T02:18:38;101972.15;;;6.14;100.00
57290;BME280;43523;53.022;-1.178;2022-10-03T02:19:53;101972.10;;;6.39;100.00
57290;BME280;43523;53.022;-1.178;2022-10-03T02:21:09;101968.19;;;6.41;100.00
57290;BME280;43523;53.022;-1.178;2022-10-03T02:22:29;101970.96;;;6.06;100.00
57290;BME280;43523;53.022;-1.178;2022-10-03T02:23:39;101970.76;;;6.24;100.00
57290;BME280;43523;53.022;-1.178;2022-10-03T02:24:48;101971.73;;;6.20;100.00
57290;BME280;43523;53.022;-1.178;2022-10-03T02:26:01;101973.68;;;6.25;100.00
57290;BME280;43523;53.022;-1.178;2022-10-03T02:27:30;101975.87;;;6.27;100.00
57290;BME280;43523;53.022;-1.178;2022-10-03T02:28:58;101979.90;;;6.40;100.00
57290;BME280;43523;53.022;-1.178;2022-10-03T02:30:12;101980.11;;;6.40;100.00
57290;BME280;43523;53.022;-1.178;2022-10-03T02:34:18;101979.47;;;6.80;100.00
57290;BME280;43523;53.022;-1.178;2022-10-03T02:38:12;101982.36;;;6.48;100.00
57290;BME280;43523;53.022;-1.178;2022-10-03T02:40:07;101986.74;;;4.86;100.00
57290;BME280;43523;53.022;-1.178;2022-10-03T02:41:37;101987.11;;;5.61;100.00
57290;BME280;43523;53.022;-1.178;2022-10-03T02:43:03;101985.76;;;6.09;100.00
57290;BME280;43523;53.022;-1.178;2022-10-03T02:44:36;101986.89;;;6.13;96.67
57290;BME280;43523;53.022;-1.178;2022-10-03T02:48:14;101983.75;;;5.96;96.13
57290;BME280;43523;53.022;-1.178;2022-10-03T02:49:44;101984.63;;;5.16;100.00
57290;BME280;43523;53.022;-1.178;2022-10-03T02:53:21;101978.47;;;5.97;100.00
57290;BME280;43523;53.022;-1.178;2022-10-03T02:55:55;101977.01;;;5.37;100.00
57290;BME280;43523;53.022;-1.178;2022-10-03T02:57:31;101974.79;;;5.78;100.00
57290;BME280;43523;53.022;-1.178;2022-10-03T02:59:01;101971.96;;;5.70;100.00
57290;BME280;43523;53.022;-1.178;2022-10-03T03:00:13;101973.38;;;5.85;100.00
57290;BME280;43523;53.022;-1.178;2022-10-03T03:01:40;101973.37;;;5.94;100.00
57290;BME280;43523;53.022;-1.178;2022-10-03T03:03:39;101976.18;;;5.78;100.00
57290;BME280;43523;53.022;-1.178;2022-10-03T03:05:14;101976.45;;;5.99;100.00
57290;BME280;43523;53.022;-1.178;2022-10-03T03:06:34;101975.30;;;6.01;100.00
57290;BME280;43523;53.022;-1.178;2022-10-03T03:08:08;101977.73;;;5.78;100.00
57290;BME280;43523;53.022;-1.178;2022-10-03T03:09:32;101978.05;;;5.77;100.00
57290;BME280;43523;53.022;-1.178;2022-10-03T03:11:02;101976.35;;;5.82;100.00
57290;BME280;43523;53.022;-1.178;2022-10-03T03:12:24;101974.96;;;6.05;100.00
57290;BME280;43523;53.022;-1.178;2022-10-03T03:13:47;101980.74;;;6.26;100.00
57290;BME280;43523;53.022;-1.178;2022-10-03T03:15:24;101985.97;;;6.29;100.00
57290;BME280;43523;53.022;-1.178;2022-10-03T03:16:47;101987.19;;;6.18;100.00
57290;BME280;43523;53.022;-1.178;2022-10-03T03:17:59;101986.51;;;5.88;100.00
57290;BME280;43523;53.022;-1.178;2022-10-03T03:19:15;101983.50;;;5.94;100.00
57290;BME280;43523;53.022;-1.178;2022-10-03T03:20:48;101979.88;;;5.97;100.00
57290;BME280;43523;53.022;-1.178;2022-10-03T03:21:59;101979.30;;;5.94;100.00
57290;BME280;43523;53.022;-1.178;2022-10-03T03:23:28;101979.89;;;5.81;100.00
57290;BME280;43523;53.022;-1.178;2022-10-03T03:24:44;101980.65;;;5.64;100.00
57290;BME280;43523;53.022;-1.178;2022-10-03T03:26:14;101979.45;;;5.53;100.00
57290;BME280;43523;53.022;-1.178;2022-10-03T03:27:34;101978.90;;;5.75;100.00
57290;BME280;43523;53.022;-1.178;2022-10-03T03:28:45;101979.08;;;5.82;100.00
57290;BME280;43523;53.022;-1.178;2022-10-03T03:29:56;101977.69;;;5.89;100.00
57290;BME280;43523;53.022;-1.178;2022-10-03T03:31:08;101974.19;;;5.88;100.00
57290;BME280;43523;53.022;-1.178;2022-10-03T03:32:18;101974.55;;;5.66;100.00
57290;BME280;43523;53.022;-1.178;2022-10-03T03:33:32;101970.15;;;5.71;100.00
57290;BME280;43523;53.022;-1.178;2022-10-03T03:34:49;101967.36;;;5.66;100.00
57290;BME280;43523;53.022;-1.178;2022-10-03T03:36:01;101964.23;;;5.72;100.00
57290;BME280;43523;53.022;-1.178;2022-10-03T03:37:10;101963.17;;;5.54;100.00
57290;BME280;43523;53.022;-1.178;2022-10-03T03:38:25;101963.11;;;5.50;100.00
57290;BME280;43523;53.022;-1.178;2022-10-03T03:39:43;101961.64;;;5.69;100.00
57290;BME280;43523;53.022;-1.178;2022-10-03T03:41:02;101961.54;;;5.75;100.00
57290;BME280;43523;53.022;-1.178;2022-10-03T03:42:20;101963.37;;;5.66;100.00
57290;BME280;43523;53.022;-1.178;2022-10-03T03:43:52;101963.44;;;5.67;100.00
57290;BME280;43523;53.022;-1.178;2022-10-03T03:45:07;101965.44;;;5.59;100.00
57290;BME280;43523;53.022;-1.178;2022-10-03T03:46:24;101964.69;;;5.45;100.00
57290;BME280;43523;53.022;-1.178;2022-10-03T03:48:02;101961.26;;;5.51;100.00
57290;BME280;43523;53.022;-1.178;2022-10-03T03:49:25;101961.52;;;5.52;100.00
57290;BME280;43523;53.022;-1.178;2022-10-03T03:50:53;101963.32;;;5.78;100.00
57290;BME280;43523;53.022;-1.178;2022-10-03T03:52:14;101963.20;;;5.86;100.00
57290;BME280;43523;53.022;-1.178;2022-10-03T03:54:39;101966.55;;;5.12;100.00
57290;BME280;43523;53.022;-1.178;2022-10-03T03:56:02;101964.03;;;4.86;100.00
57290;BME280;43523;53.022;-1.178;2022-10-03T03:57:26;101966.72;;;5.62;100.00
57290;BME280;43523;53.022;-1.178;2022-10-03T03:58:36;101963.35;;;5.67;100.00
57290;BME280;43523;53.022;-1.178;2022-10-03T04:00:00;101959.63;;;5.76;100.00
57290;BME280;43523;53.022;-1.178;2022-10-03T04:01:22;101959.21;;;6.08;100.00
57290;BME280;43523;53.022;-1.178;2022-10-03T04:02:46;101957.25;;;6.08;100.00
57290;BME280;43523;53.022;-1.178;2022-10-03T04:04:04;101959.80;;;5.84;100.00
57290;BME280;43523;53.022;-1.178;2022-10-03T04:05:26;101965.15;;;5.83;100.00
57290;BME280;43523;53.022;-1.178;2022-10-03T04:06:42;101967.94;;;5.76;100.00
57290;BME280;43523;53.022;-1.178;2022-10-03T04:08:03;101970.63;;;5.70;100.00
57290;BME280;43523;53.022;-1.178;2022-10-03T04:10:26;101965.99;;;5.49;100.00
57290;BME280;43523;53.022;-1.178;2022-10-03T04:11:42;101963.93;;;5.69;100.00
57290;BME280;43523;53.022;-1.178;2022-10-03T04:13:13;101962.74;;;5.43;100.00
57290;BME280;43523;53.022;-1.178;2022-10-03T04:14:38;101963.24;;;5.89;100.00
57290;BME280;43523;53.022;-1.178;2022-10-03T04:16:05;101961.91;;;5.55;100.00
57290;BME280;43523;53.022;-1.178;2022-10-03T04:17:26;101962.33;;;5.64;100.00
57290;BME280;43523;53.022;-1.178;2022-10-03T04:18:59;101964.29;;;5.63;100.00
57290;BME280;43523;53.022;-1.178;2022-10-03T04:20:15;101963.97;;;5.63;100.00
57290;BME280;43523;53.022;-1.178;2022-10-03T04:21:39;101964.49;;;5.66;100.00
57290;BME280;43523;53.022;-1.178;2022-10-03T04:23:00;101965.35;;;5.65;100.00
57290;BME280;43523;53.022;-1.178;2022-10-03T04:24:57;101958.99;;;5.58;100.00
57290;BME280;43523;53.022;-1.178;2022-10-03T04:26:15;101963.23;;;5.79;100.00
57290;BME280;43523;53.022;-1.178;2022-10-03T04:27:35;101964.51;;;5.65;100.00
57290;BME280;43523;53.022;-1.178;2022-10-03T04:29:26;101965.37;;;5.91;100.00
57290;BME280;43523;53.022;-1.178;2022-10-03T04:30:38;101970.07;;;5.81;100.00
57290;BME280;43523;53.022;-1.178;2022-10-03T04:31:56;101973.31;;;5.70;100.00
57290;BME280;43523;53.022;-1.178;2022-10-03T04:33:11;101977.26;;;5.62;100.00
57290;BME280;43523;53.022;-1.178;2022-10-03T04:34:30;101979.70;;;5.59;100.00
57290;BME280;43523;53.022;-1.178;2022-10-03T04:37:04;101973.13;;;5.96;100.00
57290;BME280;43523;53.022;-1.178;2022-10-03T04:38:14;101971.41;;;5.22;100.00
57290;BME280;43523;53.022;-1.178;2022-10-03T04:39:28;101972.54;;;5.84;100.00
57290;BME280;43523;53.022;-1.178;2022-10-03T04:40:42;101973.24;;;5.58;100.00
57290;BME280;43523;53.022;-1.178;2022-10-03T04:41:53;101965.70;;;5.66;100.00
57290;BME280;43523;53.022;-1.178;2022-10-03T04:43:03;101963.49;;;5.69;100.00
57290;BME280;43523;53.022;-1.178;2022-10-03T04:44:21;101958.83;;;5.56;100.00
57290;BME280;43523;53.022;-1.178;2022-10-03T04:45:40;101960.59;;;5.69;100.00
57290;BME280;43523;53.022;-1.178;2022-10-03T04:46:53;101961.72;;;5.37;100.00
57290;BME280;43523;53.022;-1.178;2022-10-03T04:48:08;101962.66;;;5.56;100.00
57290;BME280;43523;53.022;-1.178;2022-10-03T04:49:17;101960.87;;;5.77;100.00
57290;BME280;43523;53.022;-1.178;2022-10-03T04:50:32;101960.04;;;5.52;100.00
57290;BME280;43523;53.022;-1.178;2022-10-03T04:51:47;101957.68;;;5.47;100.00
57290;BME280;43523;53.022;-1.178;2022-10-03T04:53:04;101955.26;;;5.52;100.00
57290;BME280;43523;53.022;-1.178;2022-10-03T04:54:21;101955.20;;;5.49;100.00
57290;BME280;43523;53.022;-1.178;2022-10-03T04:55:29;101953.38;;;5.96;100.00
57290;BME280;43523;53.022;-1.178;2022-10-03T04:56:42;101949.73;;;5.87;100.00
57290;BME280;43523;53.022;-1.178;2022-10-03T04:57:55;101946.57;;;5.87;100.00
57290;BME280;43523;53.022;-1.178;2022-10-03T04:59:07;101945.64;;;5.56;100.00
57290;BME280;43523;53.022;-1.178;2022-10-03T05:00:21;101947.65;;;5.37;100.00
57290;BME280;43523;53.022;-1.178;2022-10-03T05:01:27;101950.70;;;5.23;100.00
57290;BME280;43523;53.022;-1.178;2022-10-03T05:02:44;101950.06;;;5.19;100.00
57290;BME280;43523;53.022;-1.178;2022-10-03T05:03:57;101949.60;;;5.15;100.00
57290;BME280;43523;53.022;-1.178;2022-10-03T05:05:25;101951.80;;;5.26;100.00
57290;BME280;43523;53.022;-1.178;2022-10-03T05:06:36;101950.31;;;5.44;100.00
57290;BME280;43523;53.022;-1.178;2022-10-03T05:07:49;101946.81;;;5.52;100.00
57290;BME280;43523;53.022;-1.178;2022-10-03T05:09:00;101944.62;;;5.05;100.00
57290;BME280;43523;53.022;-1.178;2022-10-03T05:10:47;101948.65;;;5.38;100.00
57290;BME280;43523;53.022;-1.178;2022-10-03T05:12:00;101951.11;;;5.28;100.00
57290;BME280;43523;53.022;-1.178;2022-10-03T05:13:11;101950.34;;;5.32;100.00
57290;BME280;43523;53.022;-1.178;2022-10-03T05:14:23;101952.96;;;5.28;100.00
57290;BME280;43523;53.022;-1.178;2022-10-03T05:15:33;101955.53;;;5.28;100.00
57290;BME280;43523;53.022;-1.178;2022-10-03T05:16:46;101956.30;;;4.65;100.00
57290;BME280;43523;53.022;-1.178;2022-10-03T05:17:59;101952.88;;;4.68;100.00
57290;BME280;43523;53.022;-1.178;2022-10-03T05:19:34;101951.63;;;4.68;100.00
57290;BME280;43523;53.022;-1.178;2022-10-03T05:20:47;101950.87;;;4.70;100.00
57290;BME280;43523;53.022;-1.178;2022-10-03T05:21:56;101953.81;;;4.59;100.00
57290;BME280;43523;53.022;-1.178;2022-10-03T05:23:10;101955.31;;;4.30;100.00
57290;BME280;43523;53.022;-1.178;2022-10-03T05:24:21;101957.12;;;4.19;100.00
57290;BME280;43523;53.022;-1.178;2022-10-03T05:25:37;101955.70;;;4.71;100.00
57290;BME280;43523;53.022;-1.178;2022-10-03T05:26:48;101954.36;;;4.22;100.00
57290;BME280;43523;53.022;-1.178;2022-10-03T05:28:00;101955.25;;;4.63;100.00
57290;BME280;43523;53.022;-1.178;2022-10-03T05:29:16;101951.77;;;4.53;100.00
57290;BME280;43523;53.022;-1.178;2022-10-03T05:30:34;101950.77;;;4.53;100.00
57290;BME280;43523;53.022;-1.178;2022-10-03T05:31:48;101951.51;;;4.71;100.00
57290;BME280;43523;53.022;-1.178;2022-10-03T05:32:59;101949.48;;;4.78;100.00
57290;BME280;43523;53.022;-1.178;2022-10-03T05:34:14;101949.79;;;4.75;100.00
57290;BME280;43523;53.022;-1.178;2022-10-03T05:35:29;101948.48;;;4.77;100.00
57290;BME280;43523;53.022;-1.178;2022-10-03T05:36:45;101947.39;;;4.91;100.00
57290;BME280;43523;53.022;-1.178;2022-10-03T05:38:04;101944.65;;;5.00;100.00
57290;BME280;43523;53.022;-1.178;2022-10-03T05:39:25;101946.49;;;5.06;100.00
57290;BME280;43523;53.022;-1.178;2022-10-03T05:40:30;101947.44;;;5.01;100.00
57290;BME280;43523;53.022;-1.178;2022-10-03T05:41:35;101948.34;;;5.00;100.00
57290;BME280;43523;53.022;-1.178;2022-10-03T05:43:00;101945.02;;;4.99;100.00
57290;BME280;43523;53.022;-1.178;2022-10-03T05:44:08;101944.96;;;4.97;100.00
57290;BME280;43523;53.022;-1.178;2022-10-03T05:45:22;101943.96;;;5.13;100.00
57290;BME280;43523;53.022;-1.178;2022-10-03T05:46:39;101945.11;;;5.22;100.00
57290;BME280;43523;53.022;-1.178;2022-10-03T05:47:48;101947.16;;;5.10;100.00
57290;BME280;43523;53.022;-1.178;2022-10-03T05:48:57;101947.79;;;5.38;100.00
57290;BME280;43523;53.022;-1.178;2022-10-03T05:50:41;101949.15;;;5.17;100.00
57290;BME280;43523;53.022;-1.178;2022-10-03T05:52:03;101949.94;;;4.93;100.00
57290;BME280;43523;53.022;-1.178;2022-10-03T05:53:30;101953.94;;;4.97;100.00
57290;BME280;43523;53.022;-1.178;2022-10-03T05:54:51;101956.33;;;4.49;100.00
57290;BME280;43523;53.022;-1.178;2022-10-03T05:56:05;101956.44;;;3.90;100.00
57290;BME280;43523;53.022;-1.178;2022-10-03T05:58:27;101957.72;;;4.11;100.00
57290;BME280;43523;53.022;-1.178;2022-10-03T05:59:47;101949.63;;;4.44;100.00
57290;BME280;43523;53.022;-1.178;2022-10-03T06:01:11;101945.61;;;4.71;100.00
57290;BME280;43523;53.022;-1.178;2022-10-03T06:03:34;101947.28;;;4.67;100.00
57290;BME280;43523;53.022;-1.178;2022-10-03T06:05:29;101947.39;;;4.67;100.00
57290;BME280;43523;53.022;-1.178;2022-10-03T06:06:46;101946.01;;;4.97;100.00
57290;BME280;43523;53.022;-1.178;2022-10-03T06:08:15;101943.96;;;5.20;100.00
57290;BME280;43523;53.022;-1.178;2022-10-03T06:09:39;101938.45;;;5.31;100.00
57290;BME280;43523;53.022;-1.178;2022-10-03T06:10:52;101935.40;;;5.49;100.00
57290;BME280;43523;53.022;-1.178;2022-10-03T06:12:07;101938.73;;;5.23;100.00
57290;BME280;43523;53.022;-1.178;2022-10-03T06:13:18;101944.17;;;5.53;100.00
57290;BME280;43523;53.022;-1.178;2022-10-03T06:14:30;101943.07;;;5.29;100.00
57290;BME280;43523;53.022;-1.178;2022-10-03T06:15:43;101944.89;;;5.44;100.00
57290;BME280;43523;53.022;-1.178;2022-10-03T06:16:55;101944.71;;;5.02;100.00
57290;BME280;43523;53.022;-1.178;2022-10-03T06:18:16;101943.80;;;4.99;100.00
57290;BME280;43523;53.022;-1.178;2022-10-03T06:19:37;101937.99;;;5.33;100.00
57290;BME280;43523;53.022;-1.178;2022-10-03T06:23:12;101931.83;;;6.14;100.00
57290;BME280;43523;53.022;-1.178;2022-10-03T06:24:39;101935.57;;;5.27;100.00
57290;BME280;43523;53.022;-1.178;2022-10-03T06:26:10;101935.03;;;5.40;100.00
57290;BME280;43523;53.022;-1.178;2022-10-03T06:27:31;101934.74;;;5.80;100.00
57290;BME280;43523;53.022;-1.178;2022-10-03T06:29:06;101933.18;;;5.65;100.00
57290;BME280;43523;53.022;-1.178;2022-10-03T06:30:21;101930.10;;;5.90;100.00
57290;BME280;43523;53.022;-1.178;2022-10-03T06:32:54;101931.12;;;5.78;100.00
57290;BME280;43523;53.022;-1.178;2022-10-03T06:34:40;101927.58;;;6.11;100.00
57290;BME280;43523;53.022;-1.178;2022-10-03T06:36:14;101931.84;;;5.96;100.00
57290;BME280;43523;53.022;-1.178;2022-10-03T06:38:08;101932.07;;;5.79;100.00
57290;BME280;43523;53.022;-1.178;2022-10-03T06:39:53;101934.08;;;6.07;100.00
57290;BME280;43523;53.022;-1.178;2022-10-03T06:41:24;101939.77;;;6.16;100.00
57290;BME280;43523;53.022;-1.178;2022-10-03T06:42:51;101943.12;;;6.11;100.00
57290;BME280;43523;53.022;-1.178;2022-10-03T06:44:07;101943.25;;;5.91;100.00
57290;BME280;43523;53.022;-1.178;2022-10-03T06:47:36;101944.04;;;6.54;100.00
57290;BME280;43523;53.022;-1.178;2022-10-03T06:50:11;101942.54;;;5.58;100.00
57290;BME280;43523;53.022;-1.178;2022-10-03T06:51:35;101942.77;;;5.98;100.00
57290;BME280;43523;53.022;-1.178;2022-10-03T06:52:56;101942.25;;;6.03;100.00
57290;BME280;43523;53.022;-1.178;2022-10-03T06:54:16;101941.66;;;6.05;100.00
57290;BME280;43523;53.022;-1.178;2022-10-03T06:55:44;101942.95;;;6.08;100.00
57290;BME280;43523;53.022;-1.178;2022-10-03T06:57:17;101939.45;;;5.95;100.00
57290;BME280;43523;53.022;-1.178;2022-10-03T07:00:47;101939.64;;;6.68;100.00
57290;BME280;43523;53.022;-1.178;2022-10-03T07:02:09;101940.00;;;5.89;100.00
57290;BME280;43523;53.022;-1.178;2022-10-03T07:03:35;101936.83;;;6.29;100.00
57290;BME280;43523;53.022;-1.178;2022-10-03T07:05:01;101933.83;;;6.07;100.00
57290;BME280;43523;53.022;-1.178;2022-10-03T07:06:57;101930.03;;;6.43;100.00
57290;BME280;43523;53.022;-1.178;2022-10-03T07:08:23;101928.62;;;6.70;100.00
57290;BME280;43523;53.022;-1.178;2022-10-03T07:10:46;101932.20;;;6.44;100.00
57290;BME280;43523;53.022;-1.178;2022-10-03T07:12:12;101934.53;;;6.73;100.00
57290;BME280;43523;53.022;-1.178;2022-10-03T07:13:38;101934.93;;;6.72;100.00
57290;BME280;43523;53.022;-1.178;2022-10-03T07:15:06;101935.47;;;6.76;100.00
57290;BME280;43523;53.022;-1.178;2022-10-03T07:16:34;101928.72;;;6.82;100.00
57290;BME280;43523;53.022;-1.178;2022-10-03T07:20:02;101932.23;;;7.27;100.00
57290;BME280;43523;53.022;-1.178;2022-10-03T07:23:46;101930.49;;;7.07;100.00